sensor_id;sensor_type;location;lat;lon;timestamp;P1;durP1;ratioP1;P2;durP2;ratioP2
77417;SDS011;66490;51.484;0.026;2023-02-28T00:00:09;7.05;;;1.98;;
77417;SDS011;66490;51.484;0.026;2023-02-28T00:02:39;7.03;;;1.90;;
77417;SDS011;66490;51.484;0.026;2023-02-28T00:05:05;8.02;;;2.15;;
77417;SDS011;66490;51.484;0.026;2023-02-28T00:07:30;6.78;;;2.22;;
77417;SDS011;66490;51.484;0.026;2023-02-28T00:09:57;8.60;;;2.27;;
77417;SDS011;66490;51.484;0.026;2023-02-28T00:12:23;7.40;;;1.83;;
77417;SDS011;66490;51.484;0.026;2023-02-28T00:14:48;8.10;;;2.80;;
77417;SDS011;66490;51.484;0.026;2023-02-28T00:17:16;6.10;;;1.92;;
77417;SDS011;66490;51.484;0.026;2023-02-28T00:19:46;7.97;;;2.17;;
77417;SDS011;66490;51.484;0.026;2023-02-28T00:22:12;6.68;;;2.33;;
77417;SDS011;66490;51.484;0.026;2023-02-28T00:24:37;11.10;;;2.70;;
77417;SDS011;66490;51.484;0.026;2023-02-28T00:27:03;14.63;;;2.72;;
77417;SDS011;66490;51.484;0.026;2023-02-28T00:29:28;6.57;;;1.37;;
77417;SDS011;66490;51.484;0.026;2023-02-28T00:31:53;11.03;;;2.20;;
77417;SDS011;66490;51.484;0.026;2023-02-28T00:34:19;6.20;;;2.37;;
77417;SDS011;66490;51.484;0.026;2023-02-28T00:36:44;8.60;;;2.77;;
77417;SDS011;66490;51.484;0.026;2023-02-28T00:39:11;8.45;;;2.33;;
77417;SDS011;66490;51.484;0.026;2023-02-28T00:41:36;5.53;;;1.97;;
77417;SDS011;66490;51.484;0.026;2023-02-28T00:44:02;11.13;;;2.30;;
77417;SDS011;66490;51.484;0.026;2023-02-28T00:46:27;8.65;;;1.88;;
77417;SDS011;66490;51.484;0.026;2023-02-28T00:48:53;11.60;;;2.93;;
77417;SDS011;66490;51.484;0.026;2023-02-28T00:51:18;7.63;;;1.90;;
77417;SDS011;66490;51.484;0.026;2023-02-28T00:53:43;10.13;;;2.00;;
77417;SDS011;66490;51.484;0.026;2023-02-28T00:56:09;10.77;;;2.67;;
77417;SDS011;66490;51.484;0.026;2023-02-28T00:58:34;7.63;;;2.80;;
77417;SDS011;66490;51.484;0.026;2023-02-28T01:00:59;8.57;;;2.30;;
77417;SDS011;66490;51.484;0.026;2023-02-28T01:03:25;14.83;;;2.47;;
77417;SDS011;66490;51.484;0.026;2023-02-28T01:05:51;8.90;;;2.77;;
77417;SDS011;66490;51.484;0.026;2023-02-28T01:08:18;7.80;;;3.13;;
77417;SDS011;66490;51.484;0.026;2023-02-28T01:10:43;11.27;;;2.37;;
77417;SDS011;66490;51.484;0.026;2023-02-28T01:13:08;7.37;;;2.40;;
77417;SDS011;66490;51.484;0.026;2023-02-28T01:15:34;7.83;;;2.07;;
77417;SDS011;66490;51.484;0.026;2023-02-28T01:17:59;11.33;;;3.27;;
77417;SDS011;66490;51.484;0.026;2023-02-28T01:20:24;13.87;;;2.90;;
77417;SDS011;66490;51.484;0.026;2023-02-28T01:22:50;14.90;;;2.47;;
77417;SDS011;66490;51.484;0.026;2023-02-28T01:25:15;8.37;;;2.87;;
77417;SDS011;66490;51.484;0.026;2023-02-28T01:27:41;10.80;;;3.23;;
77417;SDS011;66490;51.484;0.026;2023-02-28T01:30:07;8.67;;;2.53;;
77417;SDS011;66490;51.484;0.026;2023-02-28T01:32:32;5.72;;;1.92;;
77417;SDS011;66490;51.484;0.026;2023-02-28T01:34:58;9.47;;;2.30;;
77417;SDS011;66490;51.484;0.026;2023-02-28T01:37:23;9.67;;;2.60;;
77417;SDS011;66490;51.484;0.026;2023-02-28T01:39:49;13.02;;;2.78;;
77417;SDS011;66490;51.484;0.026;2023-02-28T01:42:14;7.40;;;2.47;;
77417;SDS011;66490;51.484;0.026;2023-02-28T01:47:29;9.10;;;3.03;;
77417;SDS011;66490;51.484;0.026;2023-02-28T01:49:55;10.43;;;2.50;;
77417;SDS011;66490;51.484;0.026;2023-02-28T01:52:20;9.07;;;2.17;;
77417;SDS011;66490;51.484;0.026;2023-02-28T01:54:54;9.90;;;2.85;;
77417;SDS011;66490;51.484;0.026;2023-02-28T01:57:21;10.13;;;2.80;;
77417;SDS011;66490;51.484;0.026;2023-02-28T01:59:49;7.25;;;2.72;;
77417;SDS011;66490;51.484;0.026;2023-02-28T02:02:16;12.50;;;3.42;;
77417;SDS011;66490;51.484;0.026;2023-02-28T02:05:03;8.55;;;2.42;;
77417;SDS011;66490;51.484;0.026;2023-02-28T02:07:29;7.07;;;2.88;;
77417;SDS011;66490;51.484;0.026;2023-02-28T02:09:59;11.20;;;3.43;;
77417;SDS011;66490;51.484;0.026;2023-02-28T02:15:00;10.20;;;2.87;;
77417;SDS011;66490;51.484;0.026;2023-02-28T02:17:41;9.70;;;4.15;;
77417;SDS011;66490;51.484;0.026;2023-02-28T02:20:15;10.43;;;3.05;;
77417;SDS011;66490;51.484;0.026;2023-02-28T02:25:18;8.70;;;3.00;;
77417;SDS011;66490;51.484;0.026;2023-02-28T02:28:13;8.13;;;2.90;;
77417;SDS011;66490;51.484;0.026;2023-02-28T02:43:38;12.70;;;4.95;;
77417;SDS011;66490;51.484;0.026;2023-02-28T02:46:10;10.33;;;3.50;;
77417;SDS011;66490;51.484;0.026;2023-02-28T02:48:38;9.52;;;3.85;;
77417;SDS011;66490;51.484;0.026;2023-02-28T02:51:06;8.20;;;3.78;;
77417;SDS011;66490;51.484;0.026;2023-02-28T02:53:37;12.95;;;4.40;;
77417;SDS011;66490;51.484;0.026;2023-02-28T02:56:06;15.40;;;4.28;;
77417;SDS011;66490;51.484;0.026;2023-02-28T02:58:33;10.17;;;3.40;;
77417;SDS011;66490;51.484;0.026;2023-02-28T03:01:00;11.85;;;4.22;;
77417;SDS011;66490;51.484;0.026;2023-02-28T03:03:27;18.00;;;4.55;;
77417;SDS011;66490;51.484;0.026;2023-02-28T03:05:56;11.00;;;4.25;;
77417;SDS011;66490;51.484;0.026;2023-02-28T03:08:22;16.77;;;4.13;;
77417;SDS011;66490;51.484;0.026;2023-02-28T03:10:50;12.47;;;4.10;;
77417;SDS011;66490;51.484;0.026;2023-02-28T03:23:54;17.88;;;4.18;;
77417;SDS011;66490;51.484;0.026;2023-02-28T03:26:24;15.57;;;4.97;;
77417;SDS011;66490;51.484;0.026;2023-02-28T03:31:27;9.93;;;4.40;;
77417;SDS011;66490;51.484;0.026;2023-02-28T03:34:37;13.25;;;3.95;;
77417;SDS011;66490;51.484;0.026;2023-02-28T03:37:19;10.40;;;3.47;;
77417;SDS011;66490;51.484;0.026;2023-02-28T03:39:40;8.30;;;3.55;;
77417;SDS011;66490;51.484;0.026;2023-02-28T03:42:08;9.95;;;4.10;;
77417;SDS011;66490;51.484;0.026;2023-02-28T03:44:45;10.63;;;3.63;;
77417;SDS011;66490;51.484;0.026;2023-02-28T03:47:19;17.10;;;5.25;;
77417;SDS011;66490;51.484;0.026;2023-02-28T03:52:15;12.68;;;3.50;;
77417;SDS011;66490;51.484;0.026;2023-02-28T03:54:50;12.18;;;3.85;;
77417;SDS011;66490;51.484;0.026;2023-02-28T04:00:25;10.30;;;3.42;;
77417;SDS011;66490;51.484;0.026;2023-02-28T04:02:46;9.20;;;3.65;;
77417;SDS011;66490;51.484;0.026;2023-02-28T04:05:18;7.70;;;3.40;;
77417;SDS011;66490;51.484;0.026;2023-02-28T04:07:43;11.70;;;3.80;;
77417;SDS011;66490;51.484;0.026;2023-02-28T04:10:09;12.90;;;4.13;;
77417;SDS011;66490;51.484;0.026;2023-02-28T04:12:34;12.00;;;4.10;;
77417;SDS011;66490;51.484;0.026;2023-02-28T04:14:59;12.83;;;3.63;;
77417;SDS011;66490;51.484;0.026;2023-02-28T04:17:25;8.60;;;3.83;;
77417;SDS011;66490;51.484;0.026;2023-02-28T04:19:50;12.70;;;4.07;;
77417;SDS011;66490;51.484;0.026;2023-02-28T04:22:15;12.63;;;3.53;;
77417;SDS011;66490;51.484;0.026;2023-02-28T04:24:42;11.87;;;4.10;;
77417;SDS011;66490;51.484;0.026;2023-02-28T04:27:08;12.30;;;4.00;;
77417;SDS011;66490;51.484;0.026;2023-02-28T04:29:34;10.03;;;3.87;;
77417;SDS011;66490;51.484;0.026;2023-02-28T04:32:00;12.02;;;3.35;;
77417;SDS011;66490;51.484;0.026;2023-02-28T04:34:26;14.00;;;4.32;;
77417;SDS011;66490;51.484;0.026;2023-02-28T04:36:53;14.50;;;4.80;;
77417;SDS011;66490;51.484;0.026;2023-02-28T04:39:20;16.75;;;4.30;;
77417;SDS011;66490;51.484;0.026;2023-02-28T04:41:45;14.88;;;4.38;;
77417;SDS011;66490;51.484;0.026;2023-02-28T04:44:11;14.27;;;3.50;;
77417;SDS011;66490;51.484;0.026;2023-02-28T04:46:36;10.73;;;3.97;;
77417;SDS011;66490;51.484;0.026;2023-02-28T04:49:02;11.77;;;4.13;;
77417;SDS011;66490;51.484;0.026;2023-02-28T04:51:27;11.33;;;3.93;;
77417;SDS011;66490;51.484;0.026;2023-02-28T04:53:53;9.02;;;3.63;;
77417;SDS011;66490;51.484;0.026;2023-02-28T04:56:19;12.97;;;4.30;;
77417;SDS011;66490;51.484;0.026;2023-02-28T04:58:44;8.13;;;2.90;;
77417;SDS011;66490;51.484;0.026;2023-02-28T05:01:17;15.40;;;3.53;;
77417;SDS011;66490;51.484;0.026;2023-02-28T05:03:43;14.63;;;3.87;;
77417;SDS011;66490;51.484;0.026;2023-02-28T05:06:09;11.70;;;4.00;;
77417;SDS011;66490;51.484;0.026;2023-02-28T05:08:34;11.93;;;4.78;;
77417;SDS011;66490;51.484;0.026;2023-02-28T05:11:00;14.90;;;3.93;;
77417;SDS011;66490;51.484;0.026;2023-02-28T05:13:26;9.23;;;4.27;;
77417;SDS011;66490;51.484;0.026;2023-02-28T05:15:51;15.38;;;5.90;;
77417;SDS011;66490;51.484;0.026;2023-02-28T05:18:16;16.67;;;5.50;;
77417;SDS011;66490;51.484;0.026;2023-02-28T05:20:42;11.27;;;4.80;;
77417;SDS011;66490;51.484;0.026;2023-02-28T05:23:08;19.77;;;7.87;;
77417;SDS011;66490;51.484;0.026;2023-02-28T05:25:33;17.27;;;6.10;;
77417;SDS011;66490;51.484;0.026;2023-02-28T05:27:59;18.73;;;6.63;;
77417;SDS011;66490;51.484;0.026;2023-02-28T05:30:24;13.63;;;6.27;;
77417;SDS011;66490;51.484;0.026;2023-02-28T05:32:50;19.40;;;6.20;;
77417;SDS011;66490;51.484;0.026;2023-02-28T05:35:16;12.83;;;6.37;;
77417;SDS011;66490;51.484;0.026;2023-02-28T05:37:41;15.23;;;6.60;;
77417;SDS011;66490;51.484;0.026;2023-02-28T05:40:07;14.57;;;7.00;;
77417;SDS011;66490;51.484;0.026;2023-02-28T05:42:35;11.63;;;6.28;;
77417;SDS011;66490;51.484;0.026;2023-02-28T05:45:01;16.17;;;6.47;;
77417;SDS011;66490;51.484;0.026;2023-02-28T05:47:27;14.00;;;6.70;;
77417;SDS011;66490;51.484;0.026;2023-02-28T05:49:52;16.02;;;8.18;;
77417;SDS011;66490;51.484;0.026;2023-02-28T05:52:18;17.50;;;8.53;;
77417;SDS011;66490;51.484;0.026;2023-02-28T05:54:43;18.48;;;8.48;;
77417;SDS011;66490;51.484;0.026;2023-02-28T05:57:08;15.00;;;8.67;;
77417;SDS011;66490;51.484;0.026;2023-02-28T05:59:34;18.67;;;8.37;;
77417;SDS011;66490;51.484;0.026;2023-02-28T06:01:59;22.67;;;9.43;;
77417;SDS011;66490;51.484;0.026;2023-02-28T06:04:24;21.60;;;9.53;;
77417;SDS011;66490;51.484;0.026;2023-02-28T06:06:50;19.17;;;9.43;;
77417;SDS011;66490;51.484;0.026;2023-02-28T06:09:16;19.55;;;8.85;;
77417;SDS011;66490;51.484;0.026;2023-02-28T06:11:41;18.10;;;8.87;;
77417;SDS011;66490;51.484;0.026;2023-02-28T06:14:07;18.48;;;8.35;;
77417;SDS011;66490;51.484;0.026;2023-02-28T06:16:37;20.00;;;8.18;;
77417;SDS011;66490;51.484;0.026;2023-02-28T06:19:03;15.57;;;8.50;;
77417;SDS011;66490;51.484;0.026;2023-02-28T06:21:29;17.43;;;8.63;;
77417;SDS011;66490;51.484;0.026;2023-02-28T06:23:55;23.45;;;8.40;;
77417;SDS011;66490;51.484;0.026;2023-02-28T06:26:20;16.03;;;8.43;;
77417;SDS011;66490;51.484;0.026;2023-02-28T06:28:45;18.33;;;9.10;;
77417;SDS011;66490;51.484;0.026;2023-02-28T06:31:12;14.90;;;7.50;;
77417;SDS011;66490;51.484;0.026;2023-02-28T06:33:38;16.92;;;8.07;;
77417;SDS011;66490;51.484;0.026;2023-02-28T06:36:04;18.67;;;8.67;;
77417;SDS011;66490;51.484;0.026;2023-02-28T06:38:30;17.20;;;7.70;;
77417;SDS011;66490;51.484;0.026;2023-02-28T06:40:56;19.50;;;8.80;;
77417;SDS011;66490;51.484;0.026;2023-02-28T06:43:22;18.43;;;7.77;;
77417;SDS011;66490;51.484;0.026;2023-02-28T06:45:47;16.73;;;8.52;;
77417;SDS011;66490;51.484;0.026;2023-02-28T06:48:13;17.00;;;9.07;;
77417;SDS011;66490;51.484;0.026;2023-02-28T06:50:38;22.97;;;8.87;;
77417;SDS011;66490;51.484;0.026;2023-02-28T06:53:04;19.77;;;8.00;;
77417;SDS011;66490;51.484;0.026;2023-02-28T06:55:29;19.27;;;8.77;;
77417;SDS011;66490;51.484;0.026;2023-02-28T06:57:55;15.93;;;7.93;;
77417;SDS011;66490;51.484;0.026;2023-02-28T07:00:20;18.20;;;7.30;;
77417;SDS011;66490;51.484;0.026;2023-02-28T07:02:46;17.23;;;8.80;;
77417;SDS011;66490;51.484;0.026;2023-02-28T07:05:12;15.77;;;7.57;;
77417;SDS011;66490;51.484;0.026;2023-02-28T07:07:37;14.43;;;7.83;;
77417;SDS011;66490;51.484;0.026;2023-02-28T07:10:05;19.40;;;7.20;;
77417;SDS011;66490;51.484;0.026;2023-02-28T07:12:31;15.00;;;8.07;;
77417;SDS011;66490;51.484;0.026;2023-02-28T07:14:56;21.08;;;7.40;;
77417;SDS011;66490;51.484;0.026;2023-02-28T07:17:22;14.57;;;7.57;;
77417;SDS011;66490;51.484;0.026;2023-02-28T07:19:50;16.53;;;7.47;;
77417;SDS011;66490;51.484;0.026;2023-02-28T07:22:15;14.27;;;7.00;;
77417;SDS011;66490;51.484;0.026;2023-02-28T07:24:41;14.90;;;6.93;;
77417;SDS011;66490;51.484;0.026;2023-02-28T07:27:06;12.53;;;7.30;;
77417;SDS011;66490;51.484;0.026;2023-02-28T07:29:31;13.17;;;6.77;;
77417;SDS011;66490;51.484;0.026;2023-02-28T07:31:57;12.87;;;6.40;;
77417;SDS011;66490;51.484;0.026;2023-02-28T07:34:22;13.80;;;6.15;;
77417;SDS011;66490;51.484;0.026;2023-02-28T07:36:48;13.67;;;6.97;;
77417;SDS011;66490;51.484;0.026;2023-02-28T07:39:13;13.90;;;6.80;;
77417;SDS011;66490;51.484;0.026;2023-02-28T07:41:38;13.90;;;7.27;;
77417;SDS011;66490;51.484;0.026;2023-02-28T07:44:09;12.73;;;6.30;;
77417;SDS011;66490;51.484;0.026;2023-02-28T07:46:34;18.20;;;7.07;;
77417;SDS011;66490;51.484;0.026;2023-02-28T07:49:01;11.82;;;6.32;;
77417;SDS011;66490;51.484;0.026;2023-02-28T07:51:28;11.43;;;5.73;;
77417;SDS011;66490;51.484;0.026;2023-02-28T07:53:54;12.15;;;5.38;;
77417;SDS011;66490;51.484;0.026;2023-02-28T07:56:19;13.47;;;5.80;;
77417;SDS011;66490;51.484;0.026;2023-02-28T07:58:44;10.87;;;5.67;;
77417;SDS011;66490;51.484;0.026;2023-02-28T08:01:10;12.18;;;5.25;;
77417;SDS011;66490;51.484;0.026;2023-02-28T08:03:36;15.30;;;6.47;;
77417;SDS011;66490;51.484;0.026;2023-02-28T08:06:04;13.23;;;6.65;;
77417;SDS011;66490;51.484;0.026;2023-02-28T08:08:30;12.63;;;6.65;;
77417;SDS011;66490;51.484;0.026;2023-02-28T08:11:00;10.90;;;5.40;;
77417;SDS011;66490;51.484;0.026;2023-02-28T08:13:30;11.77;;;6.13;;
77417;SDS011;66490;51.484;0.026;2023-02-28T08:15:56;13.48;;;5.78;;
77417;SDS011;66490;51.484;0.026;2023-02-28T08:18:22;16.17;;;6.22;;
77417;SDS011;66490;51.484;0.026;2023-02-28T08:20:47;14.13;;;5.63;;
77417;SDS011;66490;51.484;0.026;2023-02-28T08:23:13;17.77;;;5.72;;
77417;SDS011;66490;51.484;0.026;2023-02-28T08:25:38;11.73;;;5.37;;
77417;SDS011;66490;51.484;0.026;2023-02-28T08:28:04;10.50;;;4.77;;
77417;SDS011;66490;51.484;0.026;2023-02-28T08:30:29;12.77;;;5.97;;
77417;SDS011;66490;51.484;0.026;2023-02-28T08:32:54;10.77;;;5.17;;
77417;SDS011;66490;51.484;0.026;2023-02-28T08:35:20;12.07;;;4.80;;
77417;SDS011;66490;51.484;0.026;2023-02-28T08:37:47;11.50;;;4.70;;
77417;SDS011;66490;51.484;0.026;2023-02-28T08:40:12;11.07;;;4.72;;
77417;SDS011;66490;51.484;0.026;2023-02-28T08:42:44;8.38;;;4.57;;
77417;SDS011;66490;51.484;0.026;2023-02-28T08:45:09;12.43;;;3.93;;
77417;SDS011;66490;51.484;0.026;2023-02-28T08:47:35;11.00;;;4.18;;
77417;SDS011;66490;51.484;0.026;2023-02-28T08:50:00;11.17;;;4.10;;
77417;SDS011;66490;51.484;0.026;2023-02-28T08:52:26;11.17;;;4.27;;
77417;SDS011;66490;51.484;0.026;2023-02-28T08:54:51;13.37;;;4.67;;
77417;SDS011;66490;51.484;0.026;2023-02-28T08:57:16;12.80;;;5.23;;
77417;SDS011;66490;51.484;0.026;2023-02-28T08:59:41;14.23;;;4.10;;
77417;SDS011;66490;51.484;0.026;2023-02-28T09:02:12;15.67;;;4.33;;
77417;SDS011;66490;51.484;0.026;2023-02-28T09:04:37;7.75;;;3.55;;
77417;SDS011;66490;51.484;0.026;2023-02-28T09:07:02;9.17;;;4.23;;
77417;SDS011;66490;51.484;0.026;2023-02-28T09:09:28;7.70;;;3.73;;
77417;SDS011;66490;51.484;0.026;2023-02-28T09:11:55;8.85;;;3.35;;
77417;SDS011;66490;51.484;0.026;2023-02-28T09:14:20;10.55;;;3.95;;
77417;SDS011;66490;51.484;0.026;2023-02-28T09:16:46;10.27;;;3.83;;
77417;SDS011;66490;51.484;0.026;2023-02-28T09:19:11;10.40;;;3.23;;
77417;SDS011;66490;51.484;0.026;2023-02-28T09:21:46;7.60;;;3.65;;
77417;SDS011;66490;51.484;0.026;2023-02-28T09:24:14;8.93;;;4.13;;
77417;SDS011;66490;51.484;0.026;2023-02-28T09:26:43;9.53;;;3.53;;
77417;SDS011;66490;51.484;0.026;2023-02-28T09:29:09;8.55;;;4.57;;
77417;SDS011;66490;51.484;0.026;2023-02-28T09:31:39;7.78;;;4.22;;
77417;SDS011;66490;51.484;0.026;2023-02-28T09:34:07;6.60;;;3.42;;
77417;SDS011;66490;51.484;0.026;2023-02-28T09:36:32;6.57;;;3.53;;
77417;SDS011;66490;51.484;0.026;2023-02-28T09:39:01;13.77;;;3.40;;
77417;SDS011;66490;51.484;0.026;2023-02-28T09:41:36;10.32;;;4.20;;
77417;SDS011;66490;51.484;0.026;2023-02-28T09:44:13;15.80;;;3.83;;
77417;SDS011;66490;51.484;0.026;2023-02-28T09:46:44;11.18;;;3.92;;
77417;SDS011;66490;51.484;0.026;2023-02-28T09:49:40;12.93;;;3.67;;
77417;SDS011;66490;51.484;0.026;2023-02-28T09:52:18;7.80;;;3.30;;
77417;SDS011;66490;51.484;0.026;2023-02-28T09:57:40;15.37;;;3.07;;
77417;SDS011;66490;51.484;0.026;2023-02-28T10:03:00;11.80;;;3.78;;
77417;SDS011;66490;51.484;0.026;2023-02-28T10:08:19;7.97;;;3.28;;
77417;SDS011;66490;51.484;0.026;2023-02-28T10:22:03;4.93;;;2.20;;
77417;SDS011;66490;51.484;0.026;2023-02-28T10:24:44;7.97;;;2.23;;
77417;SDS011;66490;51.484;0.026;2023-02-28T10:27:24;10.68;;;2.17;;
77417;SDS011;66490;51.484;0.026;2023-02-28T10:30:09;4.18;;;1.80;;
77417;SDS011;66490;51.484;0.026;2023-02-28T10:32:37;5.82;;;1.42;;
77417;SDS011;66490;51.484;0.026;2023-02-28T10:35:33;5.32;;;1.45;;
77417;SDS011;66490;51.484;0.026;2023-02-28T10:38:03;4.87;;;1.23;;
77417;SDS011;66490;51.484;0.026;2023-02-28T10:40:39;5.18;;;1.90;;
77417;SDS011;66490;51.484;0.026;2023-02-28T10:45:54;7.60;;;1.88;;
77417;SDS011;66490;51.484;0.026;2023-02-28T10:56:23;3.33;;;1.38;;
77417;SDS011;66490;51.484;0.026;2023-02-28T10:58:52;8.75;;;2.42;;
77417;SDS011;66490;51.484;0.026;2023-02-28T11:01:41;5.50;;;1.83;;
77417;SDS011;66490;51.484;0.026;2023-02-28T11:06:43;5.40;;;1.58;;
77417;SDS011;66490;51.484;0.026;2023-02-28T11:09:20;6.73;;;1.83;;
77417;SDS011;66490;51.484;0.026;2023-02-28T11:11:47;8.80;;;2.13;;
77417;SDS011;66490;51.484;0.026;2023-02-28T11:14:21;4.78;;;1.80;;
77417;SDS011;66490;51.484;0.026;2023-02-28T11:16:47;6.20;;;2.03;;
77417;SDS011;66490;51.484;0.026;2023-02-28T11:19:23;6.35;;;2.28;;
77417;SDS011;66490;51.484;0.026;2023-02-28T11:21:59;5.03;;;2.53;;
77417;SDS011;66490;51.484;0.026;2023-02-28T11:24:29;9.63;;;3.05;;
77417;SDS011;66490;51.484;0.026;2023-02-28T11:26:55;7.60;;;2.60;;
77417;SDS011;66490;51.484;0.026;2023-02-28T11:29:28;5.30;;;2.50;;
77417;SDS011;66490;51.484;0.026;2023-02-28T11:34:37;6.25;;;2.67;;
77417;SDS011;66490;51.484;0.026;2023-02-28T11:37:03;6.10;;;2.17;;
77417;SDS011;66490;51.484;0.026;2023-02-28T11:39:31;5.55;;;2.20;;
77417;SDS011;66490;51.484;0.026;2023-02-28T11:47:06;7.30;;;3.85;;
77417;SDS011;66490;51.484;0.026;2023-02-28T12:02:25;5.93;;;2.30;;
77417;SDS011;66490;51.484;0.026;2023-02-28T12:05:09;5.88;;;2.42;;
77417;SDS011;66490;51.484;0.026;2023-02-28T12:20:36;6.55;;;3.88;;
77417;SDS011;66490;51.484;0.026;2023-02-28T12:28:20;13.60;;;3.15;;
77417;SDS011;66490;51.484;0.026;2023-02-28T12:30:56;4.47;;;1.75;;
77417;SDS011;66490;51.484;0.026;2023-02-28T12:33:22;4.45;;;2.15;;
77417;SDS011;66490;51.484;0.026;2023-02-28T12:40:47;6.17;;;2.60;;
77417;SDS011;66490;51.484;0.026;2023-02-28T12:43:14;5.20;;;2.10;;
77417;SDS011;66490;51.484;0.026;2023-02-28T12:45:41;6.70;;;2.17;;
77417;SDS011;66490;51.484;0.026;2023-02-28T12:48:09;5.20;;;2.28;;
77417;SDS011;66490;51.484;0.026;2023-02-28T12:50:39;5.35;;;2.50;;
77417;SDS011;66490;51.484;0.026;2023-02-28T12:53:21;6.37;;;2.80;;
77417;SDS011;66490;51.484;0.026;2023-02-28T12:58:38;7.18;;;2.50;;
77417;SDS011;66490;51.484;0.026;2023-02-28T13:08:47;6.65;;;2.45;;
77417;SDS011;66490;51.484;0.026;2023-02-28T13:14:35;6.63;;;2.90;;
77417;SDS011;66490;51.484;0.026;2023-02-28T13:19:41;4.27;;;2.60;;
77417;SDS011;66490;51.484;0.026;2023-02-28T13:22:35;7.10;;;2.75;;
77417;SDS011;66490;51.484;0.026;2023-02-28T13:25:04;6.95;;;2.80;;
77417;SDS011;66490;51.484;0.026;2023-02-28T13:27:50;4.63;;;2.25;;
77417;SDS011;66490;51.484;0.026;2023-02-28T13:33:21;4.37;;;2.20;;
77417;SDS011;66490;51.484;0.026;2023-02-28T13:35:48;8.30;;;2.38;;
77417;SDS011;66490;51.484;0.026;2023-02-28T13:38:33;6.88;;;2.58;;
77417;SDS011;66490;51.484;0.026;2023-02-28T13:46:28;5.43;;;2.17;;
77417;SDS011;66490;51.484;0.026;2023-02-28T13:48:53;6.67;;;1.57;;
77417;SDS011;66490;51.484;0.026;2023-02-28T13:54:11;5.53;;;1.83;;
77417;SDS011;66490;51.484;0.026;2023-02-28T13:57:01;5.90;;;1.92;;
77417;SDS011;66490;51.484;0.026;2023-02-28T13:59:30;7.75;;;1.83;;
77417;SDS011;66490;51.484;0.026;2023-02-28T14:02:13;4.03;;;1.80;;
77417;SDS011;66490;51.484;0.026;2023-02-28T14:07:18;4.35;;;1.83;;
77417;SDS011;66490;51.484;0.026;2023-02-28T14:09:46;4.57;;;2.35;;
77417;SDS011;66490;51.484;0.026;2023-02-28T14:14:58;4.22;;;1.55;;
77417;SDS011;66490;51.484;0.026;2023-02-28T14:17:26;5.30;;;1.60;;
77417;SDS011;66490;51.484;0.026;2023-02-28T14:19:52;3.35;;;1.65;;
77417;SDS011;66490;51.484;0.026;2023-02-28T14:35:22;5.35;;;1.00;;
77417;SDS011;66490;51.484;0.026;2023-02-28T14:37:55;4.47;;;1.50;;
77417;SDS011;66490;51.484;0.026;2023-02-28T14:40:23;4.72;;;1.20;;
77417;SDS011;66490;51.484;0.026;2023-02-28T14:42:58;2.97;;;1.15;;
77417;SDS011;66490;51.484;0.026;2023-02-28T14:45:34;3.53;;;1.77;;
77417;SDS011;66490;51.484;0.026;2023-02-28T14:48:01;4.03;;;1.27;;
77417;SDS011;66490;51.484;0.026;2023-02-28T14:50:31;4.18;;;1.30;;
77417;SDS011;66490;51.484;0.026;2023-02-28T14:52:56;4.13;;;1.50;;
77417;SDS011;66490;51.484;0.026;2023-02-28T14:55:26;3.45;;;1.80;;
77417;SDS011;66490;51.484;0.026;2023-02-28T14:57:53;4.63;;;1.40;;
77417;SDS011;66490;51.484;0.026;2023-02-28T15:00:24;3.42;;;1.52;;
77417;SDS011;66490;51.484;0.026;2023-02-28T15:02:53;5.10;;;1.80;;
77417;SDS011;66490;51.484;0.026;2023-02-28T15:05:21;4.38;;;1.45;;
77417;SDS011;66490;51.484;0.026;2023-02-28T15:07:48;3.20;;;1.23;;
77417;SDS011;66490;51.484;0.026;2023-02-28T15:12:45;3.65;;;1.30;;
77417;SDS011;66490;51.484;0.026;2023-02-28T15:15:16;4.45;;;1.05;;
77417;SDS011;66490;51.484;0.026;2023-02-28T15:17:43;7.88;;;1.45;;
77417;SDS011;66490;51.484;0.026;2023-02-28T15:20:11;6.55;;;1.92;;
77417;SDS011;66490;51.484;0.026;2023-02-28T15:22:37;6.37;;;1.50;;
77417;SDS011;66490;51.484;0.026;2023-02-28T15:25:03;6.38;;;1.73;;
77417;SDS011;66490;51.484;0.026;2023-02-28T15:27:31;6.78;;;2.10;;
77417;SDS011;66490;51.484;0.026;2023-02-28T15:29:59;2.97;;;1.38;;
77417;SDS011;66490;51.484;0.026;2023-02-28T15:32:27;2.43;;;1.17;;
77417;SDS011;66490;51.484;0.026;2023-02-28T15:34:53;5.40;;;1.13;;
77417;SDS011;66490;51.484;0.026;2023-02-28T15:39:55;3.20;;;1.58;;
77417;SDS011;66490;51.484;0.026;2023-02-28T15:42:22;5.35;;;2.00;;
77417;SDS011;66490;51.484;0.026;2023-02-28T15:44:48;3.80;;;1.10;;
77417;SDS011;66490;51.484;0.026;2023-02-28T15:49:45;3.15;;;1.40;;
77417;SDS011;66490;51.484;0.026;2023-02-28T15:52:15;2.00;;;1.13;;
77417;SDS011;66490;51.484;0.026;2023-02-28T15:54:41;3.05;;;1.63;;
77417;SDS011;66490;51.484;0.026;2023-02-28T15:57:10;3.83;;;1.38;;
77417;SDS011;66490;51.484;0.026;2023-02-28T15:59:38;4.10;;;1.30;;
77417;SDS011;66490;51.484;0.026;2023-02-28T16:02:13;8.03;;;2.40;;
77417;SDS011;66490;51.484;0.026;2023-02-28T16:04:59;4.38;;;1.45;;
77417;SDS011;66490;51.484;0.026;2023-02-28T16:07:25;4.78;;;1.08;;
77417;SDS011;66490;51.484;0.026;2023-02-28T16:09:51;4.73;;;1.40;;
77417;SDS011;66490;51.484;0.026;2023-02-28T16:12:16;4.53;;;1.40;;
77417;SDS011;66490;51.484;0.026;2023-02-28T16:14:42;2.47;;;1.20;;
77417;SDS011;66490;51.484;0.026;2023-02-28T16:17:13;3.53;;;1.90;;
77417;SDS011;66490;51.484;0.026;2023-02-28T16:19:41;4.15;;;1.80;;
77417;SDS011;66490;51.484;0.026;2023-02-28T16:22:07;3.40;;;1.27;;
77417;SDS011;66490;51.484;0.026;2023-02-28T16:24:33;3.25;;;1.73;;
77417;SDS011;66490;51.484;0.026;2023-02-28T16:26:59;2.33;;;1.17;;
77417;SDS011;66490;51.484;0.026;2023-02-28T16:29:29;2.83;;;1.60;;
77417;SDS011;66490;51.484;0.026;2023-02-28T16:31:55;3.03;;;1.17;;
77417;SDS011;66490;51.484;0.026;2023-02-28T16:34:20;3.30;;;0.90;;
77417;SDS011;66490;51.484;0.026;2023-02-28T16:36:46;2.85;;;1.10;;
77417;SDS011;66490;51.484;0.026;2023-02-28T16:39:12;5.75;;;1.83;;
77417;SDS011;66490;51.484;0.026;2023-02-28T16:41:37;2.53;;;0.97;;
77417;SDS011;66490;51.484;0.026;2023-02-28T16:44:04;3.47;;;1.40;;
77417;SDS011;66490;51.484;0.026;2023-02-28T16:46:34;2.43;;;1.10;;
77417;SDS011;66490;51.484;0.026;2023-02-28T16:49:00;3.63;;;1.38;;
77417;SDS011;66490;51.484;0.026;2023-02-28T16:51:25;4.20;;;1.67;;
77417;SDS011;66490;51.484;0.026;2023-02-28T16:53:50;4.60;;;1.93;;
77417;SDS011;66490;51.484;0.026;2023-02-28T16:56:19;3.00;;;1.50;;
77417;SDS011;66490;51.484;0.026;2023-02-28T16:58:45;6.55;;;2.03;;
77417;SDS011;66490;51.484;0.026;2023-02-28T17:01:11;7.80;;;2.10;;
77417;SDS011;66490;51.484;0.026;2023-02-28T17:03:37;5.97;;;1.93;;
77417;SDS011;66490;51.484;0.026;2023-02-28T17:06:03;5.55;;;1.45;;
77417;SDS011;66490;51.484;0.026;2023-02-28T17:08:29;3.38;;;1.38;;
77417;SDS011;66490;51.484;0.026;2023-02-28T17:10:54;3.17;;;1.60;;
77417;SDS011;66490;51.484;0.026;2023-02-28T17:13:20;3.90;;;1.77;;
77417;SDS011;66490;51.484;0.026;2023-02-28T17:15:45;4.53;;;2.30;;
77417;SDS011;66490;51.484;0.026;2023-02-28T17:18:15;6.03;;;1.90;;
77417;SDS011;66490;51.484;0.026;2023-02-28T17:20:43;5.05;;;2.08;;
77417;SDS011;66490;51.484;0.026;2023-02-28T17:23:09;4.53;;;1.60;;
77417;SDS011;66490;51.484;0.026;2023-02-28T17:25:34;3.47;;;1.37;;
77417;SDS011;66490;51.484;0.026;2023-02-28T17:27:59;4.13;;;2.03;;
77417;SDS011;66490;51.484;0.026;2023-02-28T17:30:26;6.47;;;2.03;;
77417;SDS011;66490;51.484;0.026;2023-02-28T17:32:53;4.73;;;1.70;;
77417;SDS011;66490;51.484;0.026;2023-02-28T17:35:19;3.65;;;1.42;;